Time;durP1;ratioP1;P1;durP2;ratioP2;P2;SDS_P1;SDS_P2;PMS_P1;PMS_P2;Temp;Humidity;BMP_temperature;BMP_pressure;BME280_temperature;BME280_humidity;BME280_pressure;Samples;Min_cycle;Max_cycle;Signal;HPM_P1;HPM_P2
2023/05/28 00:00:44;;;;;;;11.20;5.45;;;10.20;99.90;;;;;;7325721;32;20134;-55
2023/05/28 00:04:45;;;;;;;11.30;6.05;;;10.10;99.90;;;;;;7321124;32;20116;-55
2023/05/28 00:08:47;;;;;;;11.98;6.07;;;10.10;99.90;;;;;;7324557;32;20149;-54
2023/05/28 00:12:49;;;;;;;12.20;6.10;;;10.10;99.90;;;;;;7320182;32;20156;-54
2023/05/28 00:16:51;;;;;;;13.32;5.87;;;10.10;99.90;;;;;;7319483;32;20161;-54
2023/05/28 00:20:53;;;;;;;12.63;6.68;;;10.10;99.90;;;;;;7321638;32;20307;-56
2023/05/28 00:24:55;;;;;;;10.73;5.78;;;10.00;99.90;;;;;;7320791;32;20151;-54
2023/05/28 00:28:59;;;;;;;11.07;6.60;;;10.10;99.90;;;;;;7323895;32;20163;-54
2023/05/28 00:33:01;;;;;;;9.35;5.65;;;10.10;99.90;;;;;;7327602;32;20121;-54
2023/05/28 00:37:03;;;;;;;8.13;5.85;;;10.10;99.90;;;;;;7320673;32;20246;-54
2023/05/28 00:41:05;;;;;;;10.27;5.97;;;10.00;99.90;;;;;;7333179;32;20690;-54
2023/05/28 00:45:07;;;;;;;14.48;6.40;;;10.00;99.90;;;;;;7324349;32;20191;-54
2023/05/28 00:49:13;;;;;;;9.93;6.25;;;9.90;99.90;;;;;;7322419;32;20474;-54
2023/05/28 00:53:15;;;;;;;12.52;6.65;;;9.80;99.90;;;;;;7318852;32;20119;-54
2023/05/28 00:57:21;;;;;;;11.68;6.05;;;9.80;99.90;;;;;;7319497;32;20200;-54
2023/05/28 01:01:26;;;;;;;10.88;5.80;;;9.80;99.90;;;;;;7307036;32;20230;-54
2023/05/28 01:05:31;;;;;;;11.20;5.47;;;9.70;99.90;;;;;;7320704;32;20658;-53
2023/05/28 01:09:33;;;;;;;7.93;4.78;;;9.50;99.90;;;;;;7327980;32;20203;-54
2023/05/28 01:13:36;;;;;;;11.52;5.12;;;9.50;99.90;;;;;;7319568;32;20130;-54
2023/05/28 01:17:38;;;;;;;9.60;4.95;;;9.40;99.90;;;;;;7326646;32;20783;-56
2023/05/28 01:21:42;;;;;;;7.55;4.35;;;9.30;99.90;;;;;;7325311;32;20649;-55
2023/05/28 01:25:47;;;;;;;10.05;5.07;;;9.20;99.90;;;;;;7332354;32;20358;-55
2023/05/28 01:29:48;;;;;;;9.07;4.90;;;9.10;99.90;;;;;;7324191;32;20175;-55
2023/05/28 01:33:50;;;;;;;10.80;4.62;;;9.10;99.90;;;;;;7337050;32;20523;-55
2023/05/28 01:38:02;;;;;;;9.82;5.30;;;9.00;99.90;;;;;;7336801;32;20245;-54
2023/05/28 01:42:06;;;;;;;7.43;5.05;;;9.00;99.90;;;;;;7332617;32;20217;-54
2023/05/28 01:46:08;;;;;;;10.98;4.85;;;8.90;99.90;;;;;;7325867;32;20177;-55
2023/05/28 01:50:11;;;;;;;13.40;5.32;;;8.80;99.90;;;;;;7332724;32;20224;-54
2023/05/28 01:54:12;;;;;;;9.95;5.53;;;8.70;99.90;;;;;;7327257;32;20104;-54
2023/05/28 01:58:14;;;;;;;11.00;6.20;;;8.80;99.90;;;;;;7321903;32;20138;-54
2023/05/28 02:02:16;;;;;;;9.73;5.85;;;8.80;99.90;;;;;;7322772;32;20108;-55
2023/05/28 02:06:18;;;;;;;11.57;5.85;;;8.70;99.90;;;;;;7333516;32;20137;-55
2023/05/28 02:10:20;;;;;;;10.38;5.57;;;8.60;99.90;;;;;;7325261;32;20107;-55
2023/05/28 02:14:22;;;;;;;9.55;5.78;;;8.60;99.90;;;;;;7327107;32;20136;-54
2023/05/28 02:18:24;;;;;;;7.53;4.72;;;8.50;99.90;;;;;;7333633;32;20273;-55
2023/05/28 02:22:25;;;;;;;9.43;5.43;;;8.40;99.90;;;;;;7327632;32;20492;-55
2023/05/28 02:26:27;;;;;;;10.75;6.20;;;8.40;99.90;;;;;;7329206;32;20787;-55
2023/05/28 02:30:29;;;;;;;8.05;5.50;;;8.40;99.90;;;;;;7327265;32;20107;-54
2023/05/28 02:34:31;;;;;;;12.15;5.25;;;8.40;99.90;;;;;;7321814;32;20571;-55
2023/05/28 02:38:33;;;;;;;8.75;5.32;;;8.40;99.90;;;;;;7329557;32;20111;-54
2023/05/28 02:42:35;;;;;;;9.50;5.22;;;8.30;99.90;;;;;;7325593;32;20183;-55
2023/05/28 02:46:37;;;;;;;10.25;4.95;;;8.30;99.90;;;;;;7319404;32;20359;-54
2023/05/28 02:50:39;;;;;;;11.07;5.05;;;8.20;99.90;;;;;;7322302;32;20246;-54
2023/05/28 02:54:40;;;;;;;10.50;5.57;;;8.20;99.90;;;;;;7325316;32;20171;-54
2023/05/28 02:58:42;;;;;;;7.60;5.45;;;8.20;99.90;;;;;;7322687;32;20583;-54
2023/05/28 03:02:44;;;;;;;11.48;5.70;;;8.30;99.90;;;;;;7322067;32;20789;-55
2023/05/28 03:06:46;;;;;;;9.75;5.20;;;8.20;99.90;;;;;;7327479;32;20147;-54
2023/05/28 03:10:48;;;;;;;12.18;5.80;;;8.20;99.90;;;;;;7322764;32;20116;-54
2023/05/28 03:14:50;;;;;;;11.18;5.12;;;8.10;99.90;;;;;;7324211;32;20114;-55
2023/05/28 03:18:52;;;;;;;9.50;6.12;;;8.10;99.90;;;;;;7322884;32;20112;-55
2023/05/28 03:22:57;;;;;;;8.30;5.40;;;8.10;99.90;;;;;;7321751;32;20276;-56
2023/05/28 03:27:00;;;;;;;7.80;5.55;;;8.00;99.90;;;;;;7323448;32;20178;-55
2023/05/28 03:31:03;;;;;;;8.45;5.32;;;8.00;99.90;;;;;;7325299;32;20142;-54
2023/05/28 03:35:06;;;;;;;9.25;5.10;;;8.00;99.90;;;;;;7326294;32;20148;-54
2023/05/28 03:39:11;;;;;;;8.30;5.10;;;8.00;99.90;;;;;;7322984;32;20270;-55
2023/05/28 03:43:12;;;;;;;9.45;5.47;;;7.90;99.90;;;;;;7327913;32;20236;-54
2023/05/28 03:47:14;;;;;;;11.25;5.43;;;8.00;99.90;;;;;;7334106;32;20111;-54
2023/05/28 03:51:16;;;;;;;9.60;5.43;;;8.00;99.90;;;;;;7308196;32;20350;-54
2023/05/28 03:55:18;;;;;;;7.40;5.07;;;8.00;99.90;;;;;;7325484;32;20613;-54
2023/05/28 03:59:20;;;;;;;10.40;5.78;;;8.10;99.90;;;;;;7323100;32;20528;-54
2023/05/28 04:03:21;;;;;;;8.63;5.75;;;8.10;99.90;;;;;;7322391;32;20245;-54
2023/05/28 04:07:23;;;;;;;11.20;5.57;;;8.20;99.90;;;;;;7323533;32;20127;-55
2023/05/28 04:11:29;;;;;;;12.43;6.45;;;8.20;99.90;;;;;;7324545;32;20115;-54
2023/05/28 04:15:31;;;;;;;12.75;6.05;;;8.20;99.90;;;;;;7329149;32;20469;-54
2023/05/28 04:19:33;;;;;;;9.55;6.35;;;8.20;99.90;;;;;;7335322;32;20153;-54
2023/05/28 04:23:35;;;;;;;10.30;5.87;;;8.30;99.90;;;;;;7330628;32;20165;-55
2023/05/28 04:27:37;;;;;;;10.60;5.45;;;8.40;99.90;;;;;;7322976;32;20111;-54
2023/05/28 04:31:40;;;;;;;10.00;5.40;;;8.60;99.90;;;;;;7324356;32;20164;-54
2023/05/28 04:35:42;;;;;;;10.18;4.90;;;8.70;99.90;;;;;;7321934;32;20175;-54
2023/05/28 04:39:44;;;;;;;7.93;5.28;;;9.00;99.90;;;;;;7319933;32;20203;-56
2023/05/28 04:43:45;;;;;;;7.80;4.90;;;9.30;99.90;;;;;;7325735;32;20112;-54
2023/05/28 04:47:50;;;;;;;11.15;4.85;;;9.60;99.90;;;;;;7330501;32;20115;-54
2023/05/28 04:51:52;;;;;;;9.65;4.60;;;9.90;99.90;;;;;;7323067;32;20135;-55
2023/05/28 04:55:55;;;;;;;8.82;5.30;;;10.40;99.90;;;;;;7324490;32;20206;-54
2023/05/28 04:59:57;;;;;;;7.55;5.07;;;10.90;99.90;;;;;;7311041;32;20294;-55
2023/05/28 05:03:59;;;;;;;7.03;4.32;;;11.40;99.90;;;;;;7331537;32;20134;-55
2023/05/28 05:08:01;;;;;;;11.05;4.87;;;12.00;99.90;;;;;;7327122;32;20200;-56
2023/05/28 05:12:03;;;;;;;8.30;4.28;;;12.60;99.90;;;;;;7327064;32;20835;-55
2023/05/28 05:16:05;;;;;;;7.93;4.78;;;13.00;99.90;;;;;;7330896;32;20107;-54
2023/05/28 05:20:08;;;;;;;7.72;4.47;;;13.40;99.90;;;;;;7329388;32;20127;-55
2023/05/28 05:24:10;;;;;;;8.73;4.62;;;13.80;99.90;;;;;;7333217;32;20119;-55
2023/05/28 05:28:11;;;;;;;7.80;4.12;;;14.20;99.90;;;;;;7330437;32;20115;-57
2023/05/28 05:32:14;;;;;;;8.95;4.50;;;14.50;99.90;;;;;;7334021;32;20116;-56
2023/05/28 05:36:15;;;;;;;8.05;4.82;;;14.90;99.90;;;;;;7327128;32;20198;-56
2023/05/28 05:40:17;;;;;;;6.65;3.85;;;15.40;99.90;;;;;;7314087;32;20180;-56
2023/05/28 05:44:19;;;;;;;7.07;4.05;;;15.60;99.90;;;;;;7316745;32;20204;-56
2023/05/28 05:48:21;;;;;;;8.07;4.00;;;15.80;99.90;;;;;;7324643;32;20763;-57
2023/05/28 05:52:23;;;;;;;5.95;3.78;;;16.00;99.90;;;;;;7329380;32;20565;-58
2023/05/28 05:56:25;;;;;;;7.00;3.78;;;16.70;99.90;;;;;;7325360;32;21120;-58
2023/05/28 06:00:27;;;;;;;7.07;3.58;;;17.00;99.90;;;;;;7330519;32;20651;-58
2023/05/28 06:04:31;;;;;;;6.45;3.95;;;17.30;99.90;;;;;;7328177;32;20238;-58
2023/05/28 06:08:35;;;;;;;7.57;3.72;;;17.80;99.90;;;;;;7332192;32;20486;-58
2023/05/28 06:12:36;;;;;;;7.87;3.42;;;18.30;99.90;;;;;;7331275;32;20145;-57
2023/05/28 06:16:38;;;;;;;6.60;3.40;;;18.70;99.90;;;;;;7337078;32;20847;-57
2023/05/28 06:20:41;;;;;;;7.07;3.83;;;19.50;99.90;;;;;;7333359;32;20167;-58
2023/05/28 06:24:44;;;;;;;5.70;3.60;;;19.90;99.90;;;;;;7322465;32;20190;-57
2023/05/28 06:28:46;;;;;;;6.82;3.87;;;21.00;99.90;;;;;;7320280;32;20134;-55
2023/05/28 06:32:47;;;;;;;7.65;3.53;;;21.50;99.90;;;;;;7331824;32;20250;-56
2023/05/28 06:36:49;;;;;;;6.18;3.40;;;22.30;99.90;;;;;;7333580;32;20478;-57
2023/05/28 06:40:51;;;;;;;5.40;3.25;;;23.00;99.90;;;;;;7336816;32;20310;-57
2023/05/28 06:44:53;;;;;;;8.13;3.50;;;23.30;99.90;;;;;;7329937;32;20107;-61
2023/05/28 06:48:55;;;;;;;9.02;3.72;;;22.20;99.90;;;;;;7331958;32;20943;-55
2023/05/28 06:52:57;;;;;;;6.60;3.22;;;21.70;99.90;;;;;;7331549;32;20229;-57
2023/05/28 06:56:58;;;;;;;6.28;3.35;;;21.00;99.90;;;;;;7324478;32;20234;-57
2023/05/28 07:01:03;;;;;;;7.32;3.42;;;20.20;99.90;;;;;;7327560;32;20323;-57
2023/05/28 07:05:04;;;;;;;7.72;3.45;;;19.90;99.90;;;;;;7324893;32;20681;-57
2023/05/28 07:09:06;;;;;;;6.10;3.08;;;19.30;99.90;;;;;;7326851;32;20217;-57
2023/05/28 07:13:08;;;;;;;6.68;3.08;;;19.00;99.90;;;;;;7328091;32;20112;-57
2023/05/28 07:17:11;;;;;;;6.90;3.40;;;18.80;99.90;;;;;;7329447;32;20111;-56
2023/05/28 07:21:13;;;;;;;8.57;3.95;;;18.70;99.90;;;;;;7324727;32;20107;-58
2023/05/28 07:25:15;;;;;;;8.57;3.37;;;18.40;99.90;;;;;;7325977;32;20274;-56
2023/05/28 07:29:18;;;;;;;12.63;3.97;;;17.90;99.90;;;;;;7314808;32;20143;-60
2023/05/28 07:33:20;;;;;;;7.80;3.65;;;18.10;99.90;;;;;;7317353;32;20672;-60
2023/05/28 07:37:22;;;;;;;8.00;3.78;;;17.80;99.90;;;;;;7324260;32;20324;-59
2023/05/28 07:41:25;;;;;;;12.23;4.37;;;17.70;99.90;;;;;;7324034;32;20137;-60
2023/05/28 07:45:27;;;;;;;7.65;3.90;;;17.70;99.90;;;;;;7317106;32;20211;-61
2023/05/28 07:49:29;;;;;;;8.88;3.97;;;17.70;99.90;;;;;;7319753;32;20557;-60
2023/05/28 07:53:31;;;;;;;6.95;3.78;;;18.00;99.90;;;;;;7321137;32;20258;-60
2023/05/28 07:57:33;;;;;;;8.63;3.90;;;18.10;99.90;;;;;;7318781;32;20388;-60
2023/05/28 08:01:35;;;;;;;9.00;4.15;;;18.50;99.90;;;;;;7317019;32;20522;-60
2023/05/28 08:05:36;;;;;;;9.38;3.83;;;18.50;99.90;;;;;;7322651;32;20226;-59
2023/05/28 08:09:41;;;;;;;8.10;3.90;;;18.70;99.90;;;;;;7320873;32;20155;-60
2023/05/28 08:13:43;;;;;;;11.40;4.32;;;19.00;99.90;;;;;;7320577;32;20123;-59
2023/05/28 08:17:44;;;;;;;9.60;3.97;;;19.60;99.90;;;;;;7317434;32;20155;-60
2023/05/28 08:21:46;;;;;;;7.87;4.47;;;20.10;99.90;;;;;;7322718;32;20135;-60
2023/05/28 08:25:48;;;;;;;10.77;4.18;;;20.00;99.90;;;;;;7312300;32;20147;-60
2023/05/28 08:29:50;;;;;;;9.15;4.35;;;20.50;99.90;;;;;;7316433;32;20808;-58
2023/05/28 08:33:52;;;;;;;7.93;4.68;;;20.70;99.90;;;;;;7321164;32;20134;-58
2023/05/28 08:37:53;;;;;;;9.18;4.35;;;20.60;99.90;;;;;;7325646;32;20116;-60
2023/05/28 08:41:55;;;;;;;8.50;4.50;;;21.00;99.90;;;;;;7325338;32;20750;-60
2023/05/28 08:45:58;;;;;;;7.68;3.35;;;21.50;99.90;;;;;;7320935;32;20205;-59
2023/05/28 08:50:04;;;;;;;9.15;3.97;;;22.00;99.90;;;;;;7321311;32;20134;-58
2023/05/28 08:54:08;;;;;;;7.03;3.65;;;22.00;99.90;;;;;;7328120;32;20211;-59
2023/05/28 08:58:10;;;;;;;12.52;4.18;;;22.70;98.80;;;;;;7329691;32;20124;-59
2023/05/28 09:02:13;;;;;;;8.63;3.85;;;22.90;98.40;;;;;;7324102;32;20127;-59
2023/05/28 09:06:16;;;;;;;8.43;4.00;;;23.10;98.90;;;;;;7328777;32;20214;-59
2023/05/28 09:10:18;;;;;;;9.02;3.70;;;23.10;96.00;;;;;;7329567;32;20164;-59
2023/05/28 09:14:20;;;;;;;10.00;3.30;;;23.00;96.40;;;;;;7329102;32;20223;-59
2023/05/28 09:18:23;;;;;;;7.57;3.40;;;23.70;96.90;;;;;;7321500;32;20207;-58
2023/05/28 09:22:26;;;;;;;7.57;3.87;;;23.60;94.70;;;;;;7325206;32;20127;-57
2023/05/28 09:26:32;;;;;;;8.18;4.00;;;24.00;96.00;;;;;;7326500;32;20139;-57
2023/05/28 09:30:35;;;;;;;8.00;3.50;;;24.00;93.20;;;;;;7324098;32;20151;-57
2023/05/28 09:34:42;;;;;;;7.80;3.35;;;24.40;94.60;;;;;;7316361;32;20129;-58
2023/05/28 09:38:45;;;;;;;7.95;3.60;;;24.60;92.80;;;;;;7333488;32;20268;-57
2023/05/28 09:42:51;;;;;;;8.85;3.70;;;22.80;91.50;;;;;;7326431;32;20267;-57
2023/05/28 09:46:53;;;;;;;8.70;4.13;;;22.80;93.50;;;;;;7328738;32;20703;-57
2023/05/28 09:50:56;;;;;;;9.15;3.50;;;23.10;93.90;;;;;;7325864;32;20287;-58
2023/05/28 09:54:59;;;;;;;9.23;3.90;;;23.00;92.10;;;;;;7330856;32;20694;-57
2023/05/28 09:59:03;;;;;;;12.10;4.55;;;22.30;93.10;;;;;;7322474;32;20525;-58
2023/05/28 10:03:04;;;;;;;9.50;3.92;;;22.30;93.60;;;;;;7311595;32;20211;-58
2023/05/28 10:07:10;;;;;;;9.88;4.22;;;23.40;94.60;;;;;;7319300;32;20177;-58
2023/05/28 10:11:16;;;;;;;11.10;3.78;;;23.50;93.40;;;;;;7313409;32;20158;-58
2023/05/28 10:15:18;;;;;;;10.95;3.62;;;24.10;92.60;;;;;;7318191;32;20162;-58
2023/05/28 10:19:20;;;;;;;8.80;3.85;;;23.70;90.10;;;;;;7324028;32;20896;-58
2023/05/28 10:23:24;;;;;;;7.28;3.62;;;23.50;91.80;;;;;;7309127;32;20213;-58
2023/05/28 10:27:33;;;;;;;8.90;3.33;;;23.50;91.20;;;;;;7319410;32;20297;-58
2023/05/28 10:31:35;;;;;;;7.75;3.28;;;23.70;90.40;;;;;;7322680;32;20242;-58
2023/05/28 10:35:54;;;;;;;10.38;3.50;;;24.30;92.80;;;;;;7317534;32;20152;-58
2023/05/28 10:39:59;;;;;;;8.93;3.20;;;25.10;92.30;;;;;;7321888;32;20323;-58
2023/05/28 10:44:07;;;;;;;12.43;3.72;;;25.10;86.80;;;;;;7304942;32;20333;-58
2023/05/28 10:48:16;;;;;;;9.75;3.33;;;24.50;82.40;;;;;;7315596;32;20681;-58
2023/05/28 10:52:24;;;;;;;8.13;3.70;;;24.50;86.40;;;;;;7311589;32;20234;-58
2023/05/28 10:56:27;;;;;;;9.93;3.25;;;23.60;84.00;;;;;;7318487;32;20230;-57
2023/05/28 11:00:28;;;;;;;8.57;3.10;;;23.80;89.10;;;;;;7324338;32;20719;-57
2023/05/28 11:04:35;;;;;;;11.00;3.70;;;24.70;86.70;;;;;;7313734;32;20218;-57
2023/05/28 11:08:44;;;;;;;12.50;3.42;;;24.30;80.40;;;;;;7302689;32;20135;-57
2023/05/28 11:12:46;;;;;;;7.55;2.90;;;23.90;83.80;;;;;;7324478;32;20222;-57
2023/05/28 11:16:48;;;;;;;7.65;3.30;;;25.10;81.50;;;;;;7306603;32;20119;-58
2023/05/28 11:21:07;;;;;;;7.78;3.22;;;25.40;82.50;;;;;;7322954;32;20187;-57
2023/05/28 11:25:09;;;;;;;7.80;3.22;;;25.60;79.00;;;;;;7320356;32;20230;-57
2023/05/28 11:29:13;;;;;;;6.90;2.85;;;25.80;76.30;;;;;;7318391;32;20108;-58
2023/05/28 11:33:15;;;;;;;5.70;2.50;;;26.10;80.40;;;;;;7318977;32;20284;-56
2023/05/28 11:37:24;;;;;;;6.60;2.90;;;26.20;76.50;;;;;;7317757;32;20106;-57
2023/05/28 11:41:26;;;;;;;5.62;2.67;;;26.80;75.90;;;;;;7323324;32;20693;-57
2023/05/28 11:45:36;;;;;;;7.20;2.83;;;26.80;73.20;;;;;;7304228;32;20187;-58
2023/05/28 11:49:39;;;;;;;6.90;3.00;;;26.70;72.70;;;;;;7309095;32;20264;-57
2023/05/28 11:53:42;;;;;;;5.90;2.58;;;27.00;72.40;;;;;;7320333;32;20303;-57
2023/05/28 11:57:54;;;;;;;5.80;2.50;;;26.90;68.80;;;;;;7319394;32;20142;-57
2023/05/28 12:02:28;;;;;;;6.12;2.80;;;26.80;73.90;;;;;;7320262;32;20270;-57
2023/05/28 12:06:34;;;;;;;8.88;3.10;;;26.70;71.00;;;;;;7278884;32;20601;-57
2023/05/28 12:10:42;;;;;;;4.80;2.30;;;27.50;68.80;;;;;;7320454;32;20114;-57
2023/05/28 12:14:46;;;;;;;5.97;2.80;;;28.00;63.60;;;;;;7319123;32;20434;-58
2023/05/28 12:18:48;;;;;;;6.43;2.30;;;28.40;65.30;;;;;;7314185;32;20139;-58
2023/05/28 12:23:11;;;;;;;6.85;2.67;;;28.30;62.10;;;;;;7318248;32;20575;-58
2023/05/28 12:27:13;;;;;;;5.50;2.75;;;28.50;60.40;;;;;;7317961;32;20541;-58
2023/05/28 12:31:14;;;;;;;6.65;2.28;;;28.80;59.70;;;;;;7323394;32;20528;-58
2023/05/28 12:35:16;;;;;;;7.68;2.55;;;28.10;61.90;;;;;;7319386;32;20150;-57
2023/05/28 12:39:18;;;;;;;8.10;3.05;;;28.00;62.40;;;;;;7321960;32;20120;-58
2023/05/28 12:43:21;;;;;;;10.88;2.40;;;27.70;62.30;;;;;;7323490;32;20631;-57
2023/05/28 12:47:22;;;;;;;5.95;2.72;;;27.60;66.10;;;;;;7317949;32;20388;-57
2023/05/28 12:51:24;;;;;;;6.40;3.10;;;27.40;61.40;;;;;;7318880;32;20169;-58
2023/05/28 12:55:26;;;;;;;6.97;3.10;;;26.60;64.10;;;;;;7321157;32;20288;-57
2023/05/28 12:59:28;;;;;;;6.55;2.70;;;26.20;62.40;;;;;;7328526;32;20185;-57
2023/05/28 13:03:32;;;;;;;5.30;2.78;;;26.60;65.40;;;;;;7319173;32;20194;-58
2023/05/28 13:07:34;;;;;;;6.75;2.75;;;26.80;62.10;;;;;;7315121;32;20207;-58
2023/05/28 13:11:36;;;;;;;7.72;2.60;;;25.80;65.90;;;;;;7326183;32;20603;-58
2023/05/28 13:15:38;;;;;;;7.43;3.15;;;26.20;66.10;;;;;;7322728;32;20320;-58
2023/05/28 13:19:39;;;;;;;8.07;3.03;;;26.60;61.20;;;;;;7316977;32;20220;-58
2023/05/28 13:23:41;;;;;;;5.37;2.40;;;26.60;64.50;;;;;;7322474;32;20123;-59
2023/05/28 13:27:43;;;;;;;4.95;2.55;;;26.10;62.70;;;;;;7323232;32;20238;-58
2023/05/28 13:31:45;;;;;;;4.90;2.37;;;26.60;62.30;;;;;;7323254;32;20118;-58
2023/05/28 13:35:47;;;;;;;5.07;2.40;;;26.00;64.10;;;;;;7324839;32;20797;-56
2023/05/28 13:39:49;;;;;;;4.70;2.17;;;26.10;63.00;;;;;;7326250;32;20115;-58
2023/05/28 13:43:54;;;;;;;5.53;2.67;;;26.20;64.40;;;;;;7336602;32;20111;-57
2023/05/28 13:47:56;;;;;;;6.60;2.50;;;26.10;63.60;;;;;;7336974;32;20210;-58
2023/05/28 13:51:59;;;;;;;7.30;3.00;;;25.70;67.60;;;;;;7330980;32;20141;-59
2023/05/28 13:56:01;;;;;;;6.80;2.47;;;25.50;63.10;;;;;;7322047;32;20134;-58
2023/05/28 14:00:07;;;;;;;4.72;2.25;;;25.60;66.50;;;;;;7328640;32;20671;-58
2023/05/28 14:04:09;;;;;;;5.82;2.10;;;25.80;62.70;;;;;;7322510;32;20210;-57
2023/05/28 14:08:11;;;;;;;6.12;2.30;;;25.80;61.90;;;;;;7317942;32;20198;-58
2023/05/28 14:12:13;;;;;;;6.90;2.28;;;25.50;60.40;;;;;;7320550;32;20194;-58
2023/05/28 14:16:18;;;;;;;7.15;2.42;;;26.10;61.20;;;;;;7311248;32;20209;-58
2023/05/28 14:20:20;;;;;;;5.22;2.47;;;26.40;61.80;;;;;;7323225;32;20359;-58
2023/05/28 14:24:21;;;;;;;5.62;2.80;;;25.70;61.70;;;;;;7325486;32;20214;-58
2023/05/28 14:28:26;;;;;;;3.75;1.75;;;25.60;62.10;;;;;;7327567;32;20635;-58
2023/05/28 14:32:28;;;;;;;5.00;2.00;;;25.60;60.00;;;;;;7329262;32;20236;-55
2023/05/28 14:36:30;;;;;;;4.18;2.00;;;25.40;58.70;;;;;;7318136;32;20214;-55
2023/05/28 14:40:31;;;;;;;5.57;1.80;;;25.40;58.60;;;;;;7326907;32;20510;-56
2023/05/28 14:44:33;;;;;;;6.28;2.20;;;25.90;57.80;;;;;;7328817;32;20115;-56
2023/05/28 14:48:35;;;;;;;6.97;2.08;;;25.90;58.70;;;;;;7336714;32;20253;-58
2023/05/28 14:52:38;;;;;;;4.35;2.10;;;25.50;62.90;;;;;;7336057;32;20202;-58
2023/05/28 14:56:39;;;;;;;4.80;2.58;;;25.70;64.80;;;;;;7336315;32;20107;-57
2023/05/28 15:00:41;;;;;;;6.65;2.28;;;25.80;62.40;;;;;;7331797;32;20198;-58
2023/05/28 15:04:44;;;;;;;5.20;2.37;;;25.80;63.80;;;;;;7338647;32;20230;-57
2023/05/28 15:08:46;;;;;;;6.28;2.55;;;25.90;63.50;;;;;;7324252;32;21671;-58
2023/05/28 15:12:48;;;;;;;4.50;1.95;;;25.60;61.00;;;;;;7318589;32;20199;-58
2023/05/28 15:16:50;;;;;;;6.32;2.12;;;25.00;62.20;;;;;;7331008;32;20617;-58
2023/05/28 15:20:52;;;;;;;3.85;2.15;;;24.10;62.60;;;;;;7323972;32;20309;-58
2023/05/28 15:24:54;;;;;;;8.15;2.10;;;23.80;65.80;;;;;;7324069;32;20186;-58
2023/05/28 15:28:57;;;;;;;7.15;2.47;;;23.80;64.20;;;;;;7317749;32;20266;-58
2023/05/28 15:33:00;;;;;;;6.30;2.25;;;23.70;66.60;;;;;;7325873;32;20618;-58
2023/05/28 15:37:04;;;;;;;7.28;2.33;;;23.70;66.50;;;;;;7332927;32;20107;-57
2023/05/28 15:41:06;;;;;;;6.12;2.47;;;23.30;68.50;;;;;;7337701;32;20211;-57
2023/05/28 15:45:08;;;;;;;4.72;2.17;;;23.30;70.50;;;;;;7333949;32;20511;-57
2023/05/28 15:49:10;;;;;;;5.20;2.33;;;23.30;70.10;;;;;;7339397;32;20125;-57
2023/05/28 15:53:11;;;;;;;3.83;2.15;;;23.10;67.40;;;;;;7324499;32;20161;-57
2023/05/28 15:57:13;;;;;;;4.95;2.42;;;23.00;69.70;;;;;;7338804;32;20142;-56
2023/05/28 16:01:18;;;;;;;6.15;2.50;;;22.80;68.60;;;;;;7343349;32;20134;-57
2023/05/28 16:05:20;;;;;;;5.62;2.30;;;22.60;69.40;;;;;;7328125;32;20127;-57
2023/05/28 16:09:23;;;;;;;3.55;2.42;;;22.30;69.80;;;;;;7334785;32;20104;-53
2023/05/28 16:13:28;;;;;;;6.28;2.15;;;22.10;69.90;;;;;;7327176;32;20134;-57
2023/05/28 16:17:31;;;;;;;5.80;2.10;;;22.10;75.20;;;;;;7338703;32;20119;-56
2023/05/28 16:21:35;;;;;;;5.82;1.90;;;21.90;74.20;;;;;;7327891;32;20115;-57
2023/05/28 16:25:37;;;;;;;3.90;1.85;;;22.00;72.70;;;;;;7341982;32;20672;-57
2023/05/28 16:29:39;;;;;;;5.28;2.70;;;22.10;71.50;;;;;;7336044;32;20107;-57
2023/05/28 16:33:41;;;;;;;6.57;2.15;;;22.10;72.50;;;;;;7334034;32;20124;-57
2023/05/28 16:37:44;;;;;;;7.53;2.50;;;22.00;71.30;;;;;;7336191;32;20711;-54
2023/05/28 16:41:46;;;;;;;6.93;2.53;;;21.90;72.00;;;;;;7335346;32;20103;-54
2023/05/28 16:45:48;;;;;;;5.15;2.00;;;21.90;72.90;;;;;;7329563;32;20115;-58
2023/05/28 16:49:50;;;;;;;5.47;2.12;;;22.00;71.40;;;;;;7326701;32;20199;-58
2023/05/28 16:53:52;;;;;;;4.15;1.70;;;21.90;70.40;;;;;;7331760;32;20192;-57
2023/05/28 16:57:54;;;;;;;5.45;2.05;;;21.90;70.80;;;;;;7334655;32;20132;-57
2023/05/28 17:01:56;;;;;;;7.65;2.28;;;22.00;69.70;;;;;;7318898;32;20146;-58
2023/05/28 17:05:58;;;;;;;4.80;2.30;;;21.80;69.70;;;;;;7338417;32;20202;-57
2023/05/28 17:10:00;;;;;;;4.20;2.17;;;21.70;72.00;;;;;;7340134;32;20115;-58
2023/05/28 17:14:01;;;;;;;5.57;2.37;;;21.50;73.10;;;;;;7334989;32;20164;-58
2023/05/28 17:18:03;;;;;;;7.37;2.80;;;21.50;76.00;;;;;;7335800;32;20157;-57
2023/05/28 17:22:05;;;;;;;5.82;2.60;;;21.40;79.30;;;;;;7339402;32;20169;-57
2023/05/28 17:26:07;;;;;;;7.00;3.22;;;21.30;84.10;;;;;;7340650;32;20205;-57
2023/05/28 17:30:10;;;;;;;9.18;3.22;;;21.30;84.90;;;;;;7322786;32;20124;-57
2023/05/28 17:34:12;;;;;;;8.70;3.00;;;21.10;86.60;;;;;;7336392;32;20227;-57
2023/05/28 17:38:14;;;;;;;7.40;2.70;;;21.20;87.30;;;;;;7347449;32;20099;-57
2023/05/28 17:42:16;;;;;;;5.80;2.67;;;21.20;88.20;;;;;;7333924;32;20122;-57
2023/05/28 17:46:21;;;;;;;9.93;2.60;;;21.20;89.00;;;;;;7331022;32;20277;-57
2023/05/28 17:50:22;;;;;;;7.62;3.25;;;21.30;87.50;;;;;;7337846;32;20110;-60
2023/05/28 17:54:24;;;;;;;7.50;3.00;;;21.30;88.50;;;;;;7321900;32;20475;-57
2023/05/28 17:58:26;;;;;;;5.95;2.83;;;21.30;87.80;;;;;;7337070;32;20107;-58
2023/05/28 18:02:28;;;;;;;9.93;3.47;;;21.30;86.60;;;;;;7336237;32;20147;-57
2023/05/28 18:06:31;;;;;;;5.45;3.10;;;21.30;86.60;;;;;;7337873;32;20254;-58
2023/05/28 18:10:36;;;;;;;6.70;2.83;;;21.20;87.70;;;;;;7337387;32;20115;-57
2023/05/28 18:14:38;;;;;;;6.72;2.87;;;21.10;89.30;;;;;;7332446;32;20940;-58
2023/05/28 18:18:40;;;;;;;7.05;2.90;;;21.00;88.30;;;;;;7335841;32;20347;-58
2023/05/28 18:22:42;;;;;;;5.22;2.70;;;21.00;88.70;;;;;;7321272;32;20119;-58
2023/05/28 18:26:44;;;;;;;6.45;2.35;;;20.90;89.70;;;;;;7335774;32;20145;-57
2023/05/28 18:30:46;;;;;;;7.30;2.90;;;20.90;90.00;;;;;;7334842;32;20507;-57
2023/05/28 18:34:48;;;;;;;5.72;3.15;;;20.80;90.80;;;;;;7336011;32;20159;-57
2023/05/28 18:38:50;;;;;;;5.12;2.60;;;20.60;90.90;;;;;;7337207;32;20169;-57
2023/05/28 18:42:53;;;;;;;9.35;2.95;;;20.50;91.30;;;;;;7338169;32;20538;-57
2023/05/28 18:46:55;;;;;;;6.45;3.08;;;20.50;91.40;;;;;;7320749;32;20126;-57
2023/05/28 18:50:57;;;;;;;5.95;2.87;;;20.40;91.60;;;;;;7330034;32;20130;-57
2023/05/28 18:54:59;;;;;;;7.40;3.12;;;20.30;92.10;;;;;;7334366;32;20103;-57
2023/05/28 18:59:01;;;;;;;8.38;3.12;;;20.20;92.30;;;;;;7340148;32;20123;-58
2023/05/28 19:03:03;;;;;;;10.23;3.10;;;20.20;92.40;;;;;;7340868;32;20137;-57
2023/05/28 19:07:05;;;;;;;5.22;3.33;;;20.10;92.60;;;;;;7340407;32;20155;-57
2023/05/28 19:11:10;;;;;;;6.18;2.67;;;20.00;93.00;;;;;;7337164;32;20758;-59
2023/05/28 19:15:12;;;;;;;11.15;3.30;;;19.80;94.50;;;;;;7332599;32;20111;-57
2023/05/28 19:19:14;;;;;;;5.53;3.05;;;19.80;94.20;;;;;;7325031;32;20151;-57
2023/05/28 19:23:16;;;;;;;9.45;3.22;;;19.80;94.10;;;;;;7335889;32;20120;-58
2023/05/28 19:27:17;;;;;;;6.95;3.10;;;19.70;94.80;;;;;;7340988;32;20206;-57
2023/05/28 19:31:20;;;;;;;7.15;3.05;;;19.50;95.60;;;;;;7338968;32;21691;-57
2023/05/28 19:35:21;;;;;;;4.45;2.35;;;19.40;96.10;;;;;;7336806;32;20135;-57
2023/05/28 19:39:23;;;;;;;5.60;3.20;;;19.30;97.40;;;;;;7343946;32;20167;-57
2023/05/28 19:43:25;;;;;;;5.72;2.90;;;19.10;98.10;;;;;;7343749;32;20126;-57
2023/05/28 19:47:27;;;;;;;9.23;3.45;;;19.00;98.80;;;;;;7338802;32;20172;-56
2023/05/28 19:51:28;;;;;;;9.25;3.28;;;18.80;99.80;;;;;;7334603;32;20107;-56
2023/05/28 19:55:32;;;;;;;7.87;2.97;;;18.70;99.90;;;;;;7345612;32;20119;-56
2023/05/28 19:59:35;;;;;;;10.38;3.70;;;18.70;99.90;;;;;;7342467;32;20115;-57
2023/05/28 20:03:37;;;;;;;11.10;3.92;;;18.70;99.90;;;;;;7323242;32;20108;-56
2023/05/28 20:07:40;;;;;;;8.23;3.92;;;18.60;99.90;;;;;;7325288;32;20112;-57
2023/05/28 20:11:45;;;;;;;9.30;4.05;;;18.60;99.90;;;;;;7321872;32;20240;-57
2023/05/28 20:15:46;;;;;;;8.02;4.10;;;18.50;99.90;;;;;;7329180;32;20190;-56
2023/05/28 20:19:49;;;;;;;10.57;3.83;;;18.40;99.90;;;;;;7322268;32;20412;-57
2023/05/28 20:23:50;;;;;;;11.15;4.70;;;18.50;99.90;;;;;;7321193;32;20243;-57
2023/05/28 20:27:52;;;;;;;11.48;4.60;;;18.40;99.90;;;;;;7329114;32;20306;-57
2023/05/28 20:31:54;;;;;;;10.45;4.12;;;18.30;99.90;;;;;;7320957;32;20538;-57
2023/05/28 20:35:57;;;;;;;11.48;4.57;;;18.10;99.90;;;;;;7318661;32;20235;-56
2023/05/28 20:39:59;;;;;;;8.95;4.30;;;18.10;99.90;;;;;;7322722;32;20953;-56
2023/05/28 20:44:02;;;;;;;8.88;4.00;;;17.90;99.90;;;;;;7332474;32;20166;-56
2023/05/28 20:48:04;;;;;;;8.32;3.87;;;17.80;99.90;;;;;;7332016;32;20190;-56
2023/05/28 20:52:06;;;;;;;9.60;3.80;;;17.70;99.90;;;;;;7328178;32;20183;-56
2023/05/28 20:56:08;;;;;;;10.55;4.57;;;17.60;99.90;;;;;;7326833;32;20607;-56
2023/05/28 21:00:11;;;;;;;11.25;3.65;;;17.50;99.90;;;;;;7332117;32;20112;-56